sensor_id;sensor_type;location;lat;lon;timestamp;P1;durP1;ratioP1;P2;durP2;ratioP2
4575;SDS011;2300;51.874;8.430;2023-03-11T00:00:35;47.43;;;44.53;;
4575;SDS011;2300;51.874;8.430;2023-03-11T00:03:04;42.63;;;39.83;;
4575;SDS011;2300;51.874;8.430;2023-03-11T00:05:32;44.10;;;41.27;;
4575;SDS011;2300;51.874;8.430;2023-03-11T00:08:00;43.57;;;40.47;;
4575;SDS011;2300;51.874;8.430;2023-03-11T00:10:28;46.00;;;42.97;;
4575;SDS011;2300;51.874;8.430;2023-03-11T00:12:57;56.40;;;52.90;;
4575;SDS011;2300;51.874;8.430;2023-03-11T00:15:25;43.97;;;40.93;;
4575;SDS011;2300;51.874;8.430;2023-03-11T00:17:53;42.27;;;39.53;;
4575;SDS011;2300;51.874;8.430;2023-03-11T00:20:20;44.77;;;41.87;;
4575;SDS011;2300;51.874;8.430;2023-03-11T00:22:49;44.63;;;41.73;;
4575;SDS011;2300;51.874;8.430;2023-03-11T00:25:16;44.43;;;41.43;;
4575;SDS011;2300;51.874;8.430;2023-03-11T00:27:43;43.73;;;40.80;;
4575;SDS011;2300;51.874;8.430;2023-03-11T00:30:10;43.43;;;40.47;;
4575;SDS011;2300;51.874;8.430;2023-03-11T00:32:39;43.27;;;40.23;;
4575;SDS011;2300;51.874;8.430;2023-03-11T00:35:06;46.37;;;43.37;;
4575;SDS011;2300;51.874;8.430;2023-03-11T00:37:34;47.87;;;44.77;;
4575;SDS011;2300;51.874;8.430;2023-03-11T00:40:00;57.13;;;53.13;;
4575;SDS011;2300;51.874;8.430;2023-03-11T00:42:26;46.77;;;43.80;;
4575;SDS011;2300;51.874;8.430;2023-03-11T00:44:53;50.70;;;47.60;;
4575;SDS011;2300;51.874;8.430;2023-03-11T00:47:19;50.40;;;47.40;;
4575;SDS011;2300;51.874;8.430;2023-03-11T00:49:47;45.73;;;42.83;;
4575;SDS011;2300;51.874;8.430;2023-03-11T00:52:14;46.07;;;43.27;;
4575;SDS011;2300;51.874;8.430;2023-03-11T00:54:40;46.80;;;43.93;;
4575;SDS011;2300;51.874;8.430;2023-03-11T00:57:07;43.47;;;40.67;;
4575;SDS011;2300;51.874;8.430;2023-03-11T00:59:33;55.77;;;52.37;;
4575;SDS011;2300;51.874;8.430;2023-03-11T01:02:00;43.30;;;40.63;;
4575;SDS011;2300;51.874;8.430;2023-03-11T01:04:26;44.80;;;42.20;;
4575;SDS011;2300;51.874;8.430;2023-03-11T01:06:54;42.00;;;39.33;;
4575;SDS011;2300;51.874;8.430;2023-03-11T01:09:20;46.20;;;42.80;;
4575;SDS011;2300;51.874;8.430;2023-03-11T01:11:47;41.03;;;38.43;;
4575;SDS011;2300;51.874;8.430;2023-03-11T01:14:13;41.57;;;38.80;;
4575;SDS011;2300;51.874;8.430;2023-03-11T01:16:40;39.77;;;37.07;;
4575;SDS011;2300;51.874;8.430;2023-03-11T01:19:06;57.80;;;54.43;;
4575;SDS011;2300;51.874;8.430;2023-03-11T01:21:32;39.57;;;37.07;;
4575;SDS011;2300;51.874;8.430;2023-03-11T01:24:00;45.97;;;43.27;;
4575;SDS011;2300;51.874;8.430;2023-03-11T01:26:27;40.33;;;37.83;;
4575;SDS011;2300;51.874;8.430;2023-03-11T01:28:53;41.30;;;38.60;;
4575;SDS011;2300;51.874;8.430;2023-03-11T01:31:20;41.67;;;39.20;;
4575;SDS011;2300;51.874;8.430;2023-03-11T01:33:46;41.03;;;37.87;;
4575;SDS011;2300;51.874;8.430;2023-03-11T01:36:13;42.07;;;39.27;;
4575;SDS011;2300;51.874;8.430;2023-03-11T01:38:39;39.43;;;36.67;;
4575;SDS011;2300;51.874;8.430;2023-03-11T01:41:07;44.80;;;42.20;;
4575;SDS011;2300;51.874;8.430;2023-03-11T01:43:36;40.07;;;37.43;;
4575;SDS011;2300;51.874;8.430;2023-03-11T01:46:13;39.67;;;36.97;;
4575;SDS011;2300;51.874;8.430;2023-03-11T01:48:41;40.90;;;38.23;;
4575;SDS011;2300;51.874;8.430;2023-03-11T01:51:11;39.70;;;37.10;;
4575;SDS011;2300;51.874;8.430;2023-03-11T01:53:37;38.57;;;36.17;;
4575;SDS011;2300;51.874;8.430;2023-03-11T01:56:04;40.20;;;37.47;;
4575;SDS011;2300;51.874;8.430;2023-03-11T01:58:33;39.50;;;37.07;;
4575;SDS011;2300;51.874;8.430;2023-03-11T02:01:04;41.37;;;38.43;;
4575;SDS011;2300;51.874;8.430;2023-03-11T02:03:32;41.17;;;38.33;;
4575;SDS011;2300;51.874;8.430;2023-03-11T02:06:04;40.07;;;37.20;;
4575;SDS011;2300;51.874;8.430;2023-03-11T02:08:34;39.50;;;36.90;;
4575;SDS011;2300;51.874;8.430;2023-03-11T02:11:01;38.77;;;36.27;;
4575;SDS011;2300;51.874;8.430;2023-03-11T02:13:30;38.87;;;36.57;;
4575;SDS011;2300;51.874;8.430;2023-03-11T02:16:00;39.07;;;36.33;;
4575;SDS011;2300;51.874;8.430;2023-03-11T02:18:27;40.83;;;38.30;;
4575;SDS011;2300;51.874;8.430;2023-03-11T02:20:56;38.53;;;35.93;;
4575;SDS011;2300;51.874;8.430;2023-03-11T02:23:33;39.10;;;36.60;;
4575;SDS011;2300;51.874;8.430;2023-03-11T02:26:05;39.20;;;36.40;;
4575;SDS011;2300;51.874;8.430;2023-03-11T02:28:39;38.93;;;36.23;;
4575;SDS011;2300;51.874;8.430;2023-03-11T02:31:07;38.57;;;36.20;;
4575;SDS011;2300;51.874;8.430;2023-03-11T02:33:34;37.17;;;34.77;;
4575;SDS011;2300;51.874;8.430;2023-03-11T02:36:02;37.80;;;35.13;;
4575;SDS011;2300;51.874;8.430;2023-03-11T02:38:29;38.60;;;35.93;;
4575;SDS011;2300;51.874;8.430;2023-03-11T02:40:56;39.23;;;36.83;;
4575;SDS011;2300;51.874;8.430;2023-03-11T02:43:25;41.03;;;38.33;;
4575;SDS011;2300;51.874;8.430;2023-03-11T02:45:58;41.67;;;39.17;;
4575;SDS011;2300;51.874;8.430;2023-03-11T02:48:26;38.20;;;35.40;;
4575;SDS011;2300;51.874;8.430;2023-03-11T02:50:54;43.53;;;40.60;;
4575;SDS011;2300;51.874;8.430;2023-03-11T02:53:21;41.00;;;38.27;;
4575;SDS011;2300;51.874;8.430;2023-03-11T02:55:48;39.97;;;37.63;;
4575;SDS011;2300;51.874;8.430;2023-03-11T02:58:14;38.17;;;35.43;;
4575;SDS011;2300;51.874;8.430;2023-03-11T03:00:41;38.57;;;35.97;;
4575;SDS011;2300;51.874;8.430;2023-03-11T03:03:08;42.90;;;40.37;;
4575;SDS011;2300;51.874;8.430;2023-03-11T03:05:35;38.87;;;36.40;;
4575;SDS011;2300;51.874;8.430;2023-03-11T03:08:02;38.60;;;35.67;;
4575;SDS011;2300;51.874;8.430;2023-03-11T03:10:29;37.60;;;35.17;;
4575;SDS011;2300;51.874;8.430;2023-03-11T03:12:56;38.70;;;36.20;;
4575;SDS011;2300;51.874;8.430;2023-03-11T03:15:22;38.60;;;35.97;;
4575;SDS011;2300;51.874;8.430;2023-03-11T03:17:48;37.80;;;35.37;;
4575;SDS011;2300;51.874;8.430;2023-03-11T03:20:17;36.60;;;34.50;;
4575;SDS011;2300;51.874;8.430;2023-03-11T03:22:47;37.47;;;35.17;;
4575;SDS011;2300;51.874;8.430;2023-03-11T03:25:14;37.37;;;34.97;;
4575;SDS011;2300;51.874;8.430;2023-03-11T03:27:40;37.20;;;35.10;;
4575;SDS011;2300;51.874;8.430;2023-03-11T03:30:07;37.03;;;34.80;;
4575;SDS011;2300;51.874;8.430;2023-03-11T03:32:35;38.10;;;35.60;;
4575;SDS011;2300;51.874;8.430;2023-03-11T03:35:02;38.23;;;35.97;;
4575;SDS011;2300;51.874;8.430;2023-03-11T03:37:32;37.83;;;35.53;;
4575;SDS011;2300;51.874;8.430;2023-03-11T03:40:00;37.13;;;34.60;;
4575;SDS011;2300;51.874;8.430;2023-03-11T03:42:27;37.60;;;35.30;;
4575;SDS011;2300;51.874;8.430;2023-03-11T03:44:54;36.90;;;34.60;;
4575;SDS011;2300;51.874;8.430;2023-03-11T03:47:20;37.93;;;35.53;;
4575;SDS011;2300;51.874;8.430;2023-03-11T03:49:47;38.00;;;35.40;;
4575;SDS011;2300;51.874;8.430;2023-03-11T03:52:13;37.27;;;34.93;;
4575;SDS011;2300;51.874;8.430;2023-03-11T03:54:41;36.53;;;34.30;;
4575;SDS011;2300;51.874;8.430;2023-03-11T03:57:08;37.23;;;35.03;;
4575;SDS011;2300;51.874;8.430;2023-03-11T03:59:34;37.47;;;35.13;;
4575;SDS011;2300;51.874;8.430;2023-03-11T04:02:00;36.70;;;34.43;;
4575;SDS011;2300;51.874;8.430;2023-03-11T04:04:27;38.53;;;36.20;;
4575;SDS011;2300;51.874;8.430;2023-03-11T04:06:54;37.97;;;35.37;;
4575;SDS011;2300;51.874;8.430;2023-03-11T04:09:21;36.87;;;34.53;;
4575;SDS011;2300;51.874;8.430;2023-03-11T04:11:48;37.53;;;34.93;;
4575;SDS011;2300;51.874;8.430;2023-03-11T04:14:15;35.87;;;33.67;;
4575;SDS011;2300;51.874;8.430;2023-03-11T04:16:42;35.97;;;33.37;;
4575;SDS011;2300;51.874;8.430;2023-03-11T04:19:08;38.63;;;36.07;;
4575;SDS011;2300;51.874;8.430;2023-03-11T04:21:36;39.47;;;36.67;;
4575;SDS011;2300;51.874;8.430;2023-03-11T04:24:03;36.93;;;34.40;;
4575;SDS011;2300;51.874;8.430;2023-03-11T04:26:29;37.83;;;35.10;;
4575;SDS011;2300;51.874;8.430;2023-03-11T04:28:57;38.03;;;35.37;;
4575;SDS011;2300;51.874;8.430;2023-03-11T04:31:24;36.37;;;33.63;;
4575;SDS011;2300;51.874;8.430;2023-03-11T04:33:50;36.17;;;33.93;;
4575;SDS011;2300;51.874;8.430;2023-03-11T04:36:17;35.97;;;33.57;;
4575;SDS011;2300;51.874;8.430;2023-03-11T04:38:43;36.70;;;34.30;;
4575;SDS011;2300;51.874;8.430;2023-03-11T04:41:10;37.73;;;34.83;;
4575;SDS011;2300;51.874;8.430;2023-03-11T04:43:37;38.13;;;35.47;;
4575;SDS011;2300;51.874;8.430;2023-03-11T04:46:05;38.07;;;35.27;;
4575;SDS011;2300;51.874;8.430;2023-03-11T04:48:31;37.83;;;35.33;;
4575;SDS011;2300;51.874;8.430;2023-03-11T04:50:58;38.23;;;35.23;;
4575;SDS011;2300;51.874;8.430;2023-03-11T04:53:24;36.63;;;34.43;;
4575;SDS011;2300;51.874;8.430;2023-03-11T04:55:51;38.40;;;35.47;;
4575;SDS011;2300;51.874;8.430;2023-03-11T04:58:18;38.17;;;35.50;;
4575;SDS011;2300;51.874;8.430;2023-03-11T05:00:44;37.57;;;35.13;;
4575;SDS011;2300;51.874;8.430;2023-03-11T05:03:12;37.27;;;34.67;;
4575;SDS011;2300;51.874;8.430;2023-03-11T05:05:38;36.60;;;34.20;;
4575;SDS011;2300;51.874;8.430;2023-03-11T05:08:05;37.20;;;34.60;;
4575;SDS011;2300;51.874;8.430;2023-03-11T05:10:31;36.63;;;34.13;;
4575;SDS011;2300;51.874;8.430;2023-03-11T05:12:58;37.57;;;35.07;;
4575;SDS011;2300;51.874;8.430;2023-03-11T05:15:24;36.57;;;34.03;;
4575;SDS011;2300;51.874;8.430;2023-03-11T05:17:51;36.50;;;34.10;;
4575;SDS011;2300;51.874;8.430;2023-03-11T05:20:19;36.40;;;34.10;;
4575;SDS011;2300;51.874;8.430;2023-03-11T05:22:45;38.00;;;35.13;;
4575;SDS011;2300;51.874;8.430;2023-03-11T05:25:11;36.93;;;34.30;;
4575;SDS011;2300;51.874;8.430;2023-03-11T05:27:38;36.67;;;34.40;;
4575;SDS011;2300;51.874;8.430;2023-03-11T05:30:05;36.80;;;34.43;;
4575;SDS011;2300;51.874;8.430;2023-03-11T05:32:33;36.57;;;34.10;;
4575;SDS011;2300;51.874;8.430;2023-03-11T05:35:00;35.90;;;33.23;;
4575;SDS011;2300;51.874;8.430;2023-03-11T05:37:28;35.90;;;33.60;;
4575;SDS011;2300;51.874;8.430;2023-03-11T05:39:55;35.10;;;32.83;;
4575;SDS011;2300;51.874;8.430;2023-03-11T05:42:23;35.50;;;33.10;;
4575;SDS011;2300;51.874;8.430;2023-03-11T05:44:50;36.33;;;33.93;;
4575;SDS011;2300;51.874;8.430;2023-03-11T05:47:16;35.60;;;33.23;;
4575;SDS011;2300;51.874;8.430;2023-03-11T05:49:43;35.70;;;33.43;;
4575;SDS011;2300;51.874;8.430;2023-03-11T05:52:12;35.53;;;32.70;;
4575;SDS011;2300;51.874;8.430;2023-03-11T05:54:39;35.17;;;33.10;;
4575;SDS011;2300;51.874;8.430;2023-03-11T05:57:06;36.60;;;34.10;;
4575;SDS011;2300;51.874;8.430;2023-03-11T05:59:32;34.60;;;32.53;;
4575;SDS011;2300;51.874;8.430;2023-03-11T06:01:59;37.07;;;34.83;;
4575;SDS011;2300;51.874;8.430;2023-03-11T06:04:26;37.37;;;34.80;;
4575;SDS011;2300;51.874;8.430;2023-03-11T06:06:53;38.80;;;36.30;;
4575;SDS011;2300;51.874;8.430;2023-03-11T06:09:19;36.53;;;34.30;;
4575;SDS011;2300;51.874;8.430;2023-03-11T06:11:47;38.83;;;36.43;;
4575;SDS011;2300;51.874;8.430;2023-03-11T06:14:13;38.47;;;35.97;;
4575;SDS011;2300;51.874;8.430;2023-03-11T06:16:40;37.80;;;35.30;;
4575;SDS011;2300;51.874;8.430;2023-03-11T06:19:07;36.43;;;33.93;;
4575;SDS011;2300;51.874;8.430;2023-03-11T06:21:34;35.70;;;33.50;;
4575;SDS011;2300;51.874;8.430;2023-03-11T06:24:00;35.63;;;33.23;;
4575;SDS011;2300;51.874;8.430;2023-03-11T06:26:27;35.80;;;33.37;;
4575;SDS011;2300;51.874;8.430;2023-03-11T06:28:55;36.70;;;34.37;;
4575;SDS011;2300;51.874;8.430;2023-03-11T06:31:22;36.27;;;34.00;;
4575;SDS011;2300;51.874;8.430;2023-03-11T06:33:49;36.33;;;34.33;;
4575;SDS011;2300;51.874;8.430;2023-03-11T06:36:17;37.40;;;35.10;;
4575;SDS011;2300;51.874;8.430;2023-03-11T06:38:44;37.27;;;35.00;;
4575;SDS011;2300;51.874;8.430;2023-03-11T06:41:12;37.07;;;34.93;;
4575;SDS011;2300;51.874;8.430;2023-03-11T06:43:38;35.40;;;33.17;;
4575;SDS011;2300;51.874;8.430;2023-03-11T06:46:10;37.23;;;34.63;;
4575;SDS011;2300;51.874;8.430;2023-03-11T06:48:38;37.80;;;35.40;;
4575;SDS011;2300;51.874;8.430;2023-03-11T06:51:05;39.53;;;37.10;;
4575;SDS011;2300;51.874;8.430;2023-03-11T06:53:32;41.30;;;38.73;;
4575;SDS011;2300;51.874;8.430;2023-03-11T06:55:59;41.27;;;38.83;;
4575;SDS011;2300;51.874;8.430;2023-03-11T06:58:27;42.20;;;39.20;;
4575;SDS011;2300;51.874;8.430;2023-03-11T07:00:58;41.93;;;39.60;;
4575;SDS011;2300;51.874;8.430;2023-03-11T07:03:27;42.80;;;40.40;;
4575;SDS011;2300;51.874;8.430;2023-03-11T07:05:53;41.87;;;39.67;;
4575;SDS011;2300;51.874;8.430;2023-03-11T07:08:20;43.47;;;41.30;;
4575;SDS011;2300;51.874;8.430;2023-03-11T07:10:57;43.03;;;40.73;;
4575;SDS011;2300;51.874;8.430;2023-03-11T07:13:24;43.67;;;40.93;;
4575;SDS011;2300;51.874;8.430;2023-03-11T07:15:58;43.17;;;40.97;;
4575;SDS011;2300;51.874;8.430;2023-03-11T07:18:26;43.33;;;40.87;;
4575;SDS011;2300;51.874;8.430;2023-03-11T07:20:53;43.43;;;40.77;;
4575;SDS011;2300;51.874;8.430;2023-03-11T07:23:19;42.67;;;39.93;;
4575;SDS011;2300;51.874;8.430;2023-03-11T07:25:46;41.80;;;39.50;;
4575;SDS011;2300;51.874;8.430;2023-03-11T07:28:12;40.87;;;38.70;;
4575;SDS011;2300;51.874;8.430;2023-03-11T07:30:39;41.00;;;38.83;;
4575;SDS011;2300;51.874;8.430;2023-03-11T07:33:08;40.90;;;38.60;;
4575;SDS011;2300;51.874;8.430;2023-03-11T07:35:36;40.53;;;37.80;;
4575;SDS011;2300;51.874;8.430;2023-03-11T07:38:02;38.87;;;36.67;;
4575;SDS011;2300;51.874;8.430;2023-03-11T07:40:29;39.17;;;36.87;;
4575;SDS011;2300;51.874;8.430;2023-03-11T07:42:55;38.47;;;36.17;;
4575;SDS011;2300;51.874;8.430;2023-03-11T07:45:21;38.63;;;36.43;;
4575;SDS011;2300;51.874;8.430;2023-03-11T07:47:48;38.87;;;36.47;;
4575;SDS011;2300;51.874;8.430;2023-03-11T07:50:15;38.70;;;36.33;;
4575;SDS011;2300;51.874;8.430;2023-03-11T07:52:43;37.13;;;35.20;;
4575;SDS011;2300;51.874;8.430;2023-03-11T07:55:10;36.50;;;34.53;;
4575;SDS011;2300;51.874;8.430;2023-03-11T07:57:36;36.53;;;34.37;;
4575;SDS011;2300;51.874;8.430;2023-03-11T08:00:04;39.37;;;37.33;;
4575;SDS011;2300;51.874;8.430;2023-03-11T08:02:31;37.70;;;35.60;;
4575;SDS011;2300;51.874;8.430;2023-03-11T08:04:57;38.13;;;35.63;;
4575;SDS011;2300;51.874;8.430;2023-03-11T08:07:24;37.63;;;35.10;;
4575;SDS011;2300;51.874;8.430;2023-03-11T08:09:51;36.83;;;35.03;;
4575;SDS011;2300;51.874;8.430;2023-03-11T08:12:19;37.87;;;35.47;;
4575;SDS011;2300;51.874;8.430;2023-03-11T08:14:45;37.87;;;35.53;;
4575;SDS011;2300;51.874;8.430;2023-03-11T08:17:12;37.07;;;34.93;;
4575;SDS011;2300;51.874;8.430;2023-03-11T08:19:38;37.00;;;34.97;;
4575;SDS011;2300;51.874;8.430;2023-03-11T08:22:05;36.77;;;34.50;;
4575;SDS011;2300;51.874;8.430;2023-03-11T08:24:32;37.97;;;35.53;;
4575;SDS011;2300;51.874;8.430;2023-03-11T08:27:01;36.63;;;34.53;;
4575;SDS011;2300;51.874;8.430;2023-03-11T08:29:27;38.80;;;36.80;;
4575;SDS011;2300;51.874;8.430;2023-03-11T08:31:53;38.57;;;36.10;;
4575;SDS011;2300;51.874;8.430;2023-03-11T08:34:20;36.97;;;35.03;;
4575;SDS011;2300;51.874;8.430;2023-03-11T08:36:46;39.20;;;36.80;;
4575;SDS011;2300;51.874;8.430;2023-03-11T08:39:13;38.13;;;35.70;;
4575;SDS011;2300;51.874;8.430;2023-03-11T08:41:39;37.30;;;35.20;;
4575;SDS011;2300;51.874;8.430;2023-03-11T08:44:07;37.07;;;34.87;;
4575;SDS011;2300;51.874;8.430;2023-03-11T08:46:34;36.20;;;34.10;;
4575;SDS011;2300;51.874;8.430;2023-03-11T08:49:02;40.90;;;38.63;;
4575;SDS011;2300;51.874;8.430;2023-03-11T08:51:31;41.77;;;39.67;;
4575;SDS011;2300;51.874;8.430;2023-03-11T08:53:59;40.83;;;38.53;;
4575;SDS011;2300;51.874;8.430;2023-03-11T08:56:26;41.10;;;38.47;;
4575;SDS011;2300;51.874;8.430;2023-03-11T08:58:52;41.20;;;38.97;;
4575;SDS011;2300;51.874;8.430;2023-03-11T09:01:20;41.17;;;38.70;;
4575;SDS011;2300;51.874;8.430;2023-03-11T09:03:47;43.57;;;40.50;;
4575;SDS011;2300;51.874;8.430;2023-03-11T09:06:15;44.60;;;42.23;;
4575;SDS011;2300;51.874;8.430;2023-03-11T09:08:42;45.63;;;43.23;;
4575;SDS011;2300;51.874;8.430;2023-03-11T09:11:10;46.60;;;44.20;;
4575;SDS011;2300;51.874;8.430;2023-03-11T09:13:37;46.37;;;43.97;;
4575;SDS011;2300;51.874;8.430;2023-03-11T09:16:05;45.63;;;43.10;;
4575;SDS011;2300;51.874;8.430;2023-03-11T09:18:33;46.77;;;43.93;;
4575;SDS011;2300;51.874;8.430;2023-03-11T09:21:00;46.27;;;43.50;;
4575;SDS011;2300;51.874;8.430;2023-03-11T09:23:26;46.03;;;43.37;;
4575;SDS011;2300;51.874;8.430;2023-03-11T09:25:53;47.17;;;44.57;;
4575;SDS011;2300;51.874;8.430;2023-03-11T09:28:19;46.07;;;43.67;;
4575;SDS011;2300;51.874;8.430;2023-03-11T09:30:45;48.17;;;45.40;;
4575;SDS011;2300;51.874;8.430;2023-03-11T09:33:12;47.40;;;45.00;;
4575;SDS011;2300;51.874;8.430;2023-03-11T09:35:40;45.20;;;43.00;;
4575;SDS011;2300;51.874;8.430;2023-03-11T09:38:06;49.37;;;46.67;;
4575;SDS011;2300;51.874;8.430;2023-03-11T09:40:38;46.77;;;44.13;;
4575;SDS011;2300;51.874;8.430;2023-03-11T09:43:15;44.53;;;42.17;;
4575;SDS011;2300;51.874;8.430;2023-03-11T09:45:52;44.27;;;41.70;;
4575;SDS011;2300;51.874;8.430;2023-03-11T09:48:27;44.47;;;42.13;;
4575;SDS011;2300;51.874;8.430;2023-03-11T09:51:07;44.33;;;42.03;;
4575;SDS011;2300;51.874;8.430;2023-03-11T09:53:41;44.23;;;41.87;;
4575;SDS011;2300;51.874;8.430;2023-03-11T09:56:09;44.97;;;42.37;;
4575;SDS011;2300;51.874;8.430;2023-03-11T09:58:39;46.27;;;43.67;;
4575;SDS011;2300;51.874;8.430;2023-03-11T10:01:11;46.43;;;43.70;;
4575;SDS011;2300;51.874;8.430;2023-03-11T10:03:42;43.60;;;41.07;;
4575;SDS011;2300;51.874;8.430;2023-03-11T10:06:15;40.60;;;38.70;;
4575;SDS011;2300;51.874;8.430;2023-03-11T10:08:44;45.70;;;43.20;;
4575;SDS011;2300;51.874;8.430;2023-03-11T10:14:12;39.53;;;37.23;;
4575;SDS011;2300;51.874;8.430;2023-03-11T10:16:53;40.87;;;38.67;;
4575;SDS011;2300;51.874;8.430;2023-03-11T10:19:29;40.27;;;37.97;;
4575;SDS011;2300;51.874;8.430;2023-03-11T10:22:08;41.27;;;38.90;;
4575;SDS011;2300;51.874;8.430;2023-03-11T10:24:49;39.70;;;37.57;;
4575;SDS011;2300;51.874;8.430;2023-03-11T10:27:26;39.30;;;37.10;;
4575;SDS011;2300;51.874;8.430;2023-03-11T10:29:58;46.67;;;42.73;;
4575;SDS011;2300;51.874;8.430;2023-03-11T10:32:34;36.37;;;34.33;;
4575;SDS011;2300;51.874;8.430;2023-03-11T10:35:09;34.03;;;32.30;;
4575;SDS011;2300;51.874;8.430;2023-03-11T10:37:43;35.70;;;33.80;;
4575;SDS011;2300;51.874;8.430;2023-03-11T10:40:15;36.03;;;34.13;;
4575;SDS011;2300;51.874;8.430;2023-03-11T10:42:47;38.37;;;36.10;;
4575;SDS011;2300;51.874;8.430;2023-03-11T10:45:16;33.50;;;31.60;;
4575;SDS011;2300;51.874;8.430;2023-03-11T10:47:44;35.43;;;33.23;;
4575;SDS011;2300;51.874;8.430;2023-03-11T10:50:12;36.73;;;34.63;;
4575;SDS011;2300;51.874;8.430;2023-03-11T10:52:43;34.13;;;32.17;;
4575;SDS011;2300;51.874;8.430;2023-03-11T10:55:29;36.30;;;34.30;;
4575;SDS011;2300;51.874;8.430;2023-03-11T10:58:02;37.20;;;34.77;;
4575;SDS011;2300;51.874;8.430;2023-03-11T11:00:30;36.70;;;34.63;;
4575;SDS011;2300;51.874;8.430;2023-03-11T11:02:57;35.17;;;33.37;;
4575;SDS011;2300;51.874;8.430;2023-03-11T11:05:27;33.83;;;32.00;;
4575;SDS011;2300;51.874;8.430;2023-03-11T11:08:02;33.87;;;31.93;;
4575;SDS011;2300;51.874;8.430;2023-03-11T11:10:31;34.30;;;32.10;;
4575;SDS011;2300;51.874;8.430;2023-03-11T11:12:59;32.43;;;30.73;;
4575;SDS011;2300;51.874;8.430;2023-03-11T11:15:28;31.13;;;29.17;;
4575;SDS011;2300;51.874;8.430;2023-03-11T11:17:58;30.40;;;28.60;;
4575;SDS011;2300;51.874;8.430;2023-03-11T11:20:27;32.80;;;30.50;;
4575;SDS011;2300;51.874;8.430;2023-03-11T11:22:56;31.23;;;28.87;;
4575;SDS011;2300;51.874;8.430;2023-03-11T11:25:27;30.67;;;28.77;;
4575;SDS011;2300;51.874;8.430;2023-03-11T11:27:56;37.33;;;34.47;;
4575;SDS011;2300;51.874;8.430;2023-03-11T11:30:25;32.77;;;30.87;;
4575;SDS011;2300;51.874;8.430;2023-03-11T11:32:52;34.33;;;31.93;;
4575;SDS011;2300;51.874;8.430;2023-03-11T11:35:19;50.87;;;45.73;;
4575;SDS011;2300;51.874;8.430;2023-03-11T11:37:47;35.50;;;33.40;;
4575;SDS011;2300;51.874;8.430;2023-03-11T11:40:18;41.73;;;38.60;;
4575;SDS011;2300;51.874;8.430;2023-03-11T11:42:51;37.10;;;34.50;;
4575;SDS011;2300;51.874;8.430;2023-03-11T11:45:23;42.77;;;39.30;;
4575;SDS011;2300;51.874;8.430;2023-03-11T11:47:54;38.73;;;35.73;;
4575;SDS011;2300;51.874;8.430;2023-03-11T11:50:25;34.30;;;32.50;;
4575;SDS011;2300;51.874;8.430;2023-03-11T11:52:57;33.50;;;31.60;;
4575;SDS011;2300;51.874;8.430;2023-03-11T11:55:32;34.97;;;33.17;;
4575;SDS011;2300;51.874;8.430;2023-03-11T11:58:03;34.20;;;32.13;;
4575;SDS011;2300;51.874;8.430;2023-03-11T12:00:35;32.57;;;30.63;;
4575;SDS011;2300;51.874;8.430;2023-03-11T12:03:10;33.13;;;31.27;;
4575;SDS011;2300;51.874;8.430;2023-03-11T12:06:01;30.47;;;28.77;;
4575;SDS011;2300;51.874;8.430;2023-03-11T12:08:37;30.87;;;29.07;;
4575;SDS011;2300;51.874;8.430;2023-03-11T12:11:09;29.73;;;28.00;;
4575;SDS011;2300;51.874;8.430;2023-03-11T12:13:50;28.43;;;26.77;;
4575;SDS011;2300;51.874;8.430;2023-03-11T12:16:29;26.83;;;25.30;;
4575;SDS011;2300;51.874;8.430;2023-03-11T12:19:09;39.13;;;37.10;;
4575;SDS011;2300;51.874;8.430;2023-03-11T12:21:49;27.70;;;26.13;;
4575;SDS011;2300;51.874;8.430;2023-03-11T12:24:35;30.40;;;28.67;;
4575;SDS011;2300;51.874;8.430;2023-03-11T12:27:17;30.80;;;28.90;;
4575;SDS011;2300;51.874;8.430;2023-03-11T12:29:49;30.50;;;28.73;;
4575;SDS011;2300;51.874;8.430;2023-03-11T12:32:21;30.27;;;28.77;;
4575;SDS011;2300;51.874;8.430;2023-03-11T12:34:53;30.20;;;28.40;;
4575;SDS011;2300;51.874;8.430;2023-03-11T12:37:20;30.03;;;27.90;;
4575;SDS011;2300;51.874;8.430;2023-03-11T12:39:48;31.07;;;29.37;;
4575;SDS011;2300;51.874;8.430;2023-03-11T12:42:16;29.73;;;28.13;;
4575;SDS011;2300;51.874;8.430;2023-03-11T12:44:44;30.73;;;29.00;;
4575;SDS011;2300;51.874;8.430;2023-03-11T12:47:20;31.43;;;29.63;;
4575;SDS011;2300;51.874;8.430;2023-03-11T12:49:48;31.63;;;29.73;;
4575;SDS011;2300;51.874;8.430;2023-03-11T12:52:22;32.10;;;30.20;;
4575;SDS011;2300;51.874;8.430;2023-03-11T12:57:55;31.60;;;29.87;;
4575;SDS011;2300;51.874;8.430;2023-03-11T13:00:46;31.30;;;29.50;;
4575;SDS011;2300;51.874;8.430;2023-03-11T13:03:33;33.50;;;31.80;;
4575;SDS011;2300;51.874;8.430;2023-03-11T13:06:12;33.30;;;31.40;;
4575;SDS011;2300;51.874;8.430;2023-03-11T13:08:48;32.97;;;31.17;;
4575;SDS011;2300;51.874;8.430;2023-03-11T13:11:25;33.20;;;31.20;;
4575;SDS011;2300;51.874;8.430;2023-03-11T13:14:07;33.37;;;31.57;;
4575;SDS011;2300;51.874;8.430;2023-03-11T13:16:37;33.83;;;32.20;;
4575;SDS011;2300;51.874;8.430;2023-03-11T13:22:01;33.17;;;31.37;;
4575;SDS011;2300;51.874;8.430;2023-03-11T13:24:50;32.47;;;30.43;;
4575;SDS011;2300;51.874;8.430;2023-03-11T13:30:08;30.47;;;28.80;;
4575;SDS011;2300;51.874;8.430;2023-03-11T13:32:50;34.50;;;32.40;;
4575;SDS011;2300;51.874;8.430;2023-03-11T13:35:35;35.00;;;33.10;;
4575;SDS011;2300;51.874;8.430;2023-03-11T13:38:16;37.60;;;35.50;;
4575;SDS011;2300;51.874;8.430;2023-03-11T13:40:59;36.30;;;34.40;;
4575;SDS011;2300;51.874;8.430;2023-03-11T13:43:27;38.10;;;35.97;;
4575;SDS011;2300;51.874;8.430;2023-03-11T13:45:55;36.60;;;34.23;;
4575;SDS011;2300;51.874;8.430;2023-03-11T13:48:27;39.30;;;36.50;;
4575;SDS011;2300;51.874;8.430;2023-03-11T13:50:59;40.87;;;37.97;;
4575;SDS011;2300;51.874;8.430;2023-03-11T13:53:31;36.53;;;34.57;;
4575;SDS011;2300;51.874;8.430;2023-03-11T13:56:02;35.87;;;33.47;;
4575;SDS011;2300;51.874;8.430;2023-03-11T13:58:29;34.87;;;32.70;;
4575;SDS011;2300;51.874;8.430;2023-03-11T14:00:56;32.37;;;30.43;;
4575;SDS011;2300;51.874;8.430;2023-03-11T14:03:25;32.93;;;30.97;;
4575;SDS011;2300;51.874;8.430;2023-03-11T14:05:59;30.57;;;28.80;;
4575;SDS011;2300;51.874;8.430;2023-03-11T14:08:28;30.53;;;28.73;;
4575;SDS011;2300;51.874;8.430;2023-03-11T14:10:57;29.87;;;28.27;;
4575;SDS011;2300;51.874;8.430;2023-03-11T14:13:25;30.57;;;28.97;;
4575;SDS011;2300;51.874;8.430;2023-03-11T14:15:56;31.03;;;29.10;;
4575;SDS011;2300;51.874;8.430;2023-03-11T14:18:28;27.93;;;26.60;;
4575;SDS011;2300;51.874;8.430;2023-03-11T14:21:04;30.77;;;28.80;;
4575;SDS011;2300;51.874;8.430;2023-03-11T14:23:38;29.13;;;27.63;;
4575;SDS011;2300;51.874;8.430;2023-03-11T14:26:08;28.00;;;26.50;;
4575;SDS011;2300;51.874;8.430;2023-03-11T14:28:39;25.07;;;23.53;;
4575;SDS011;2300;51.874;8.430;2023-03-11T14:31:19;25.40;;;23.93;;
4575;SDS011;2300;51.874;8.430;2023-03-11T14:33:52;25.33;;;23.83;;
4575;SDS011;2300;51.874;8.430;2023-03-11T14:36:21;25.20;;;23.83;;
4575;SDS011;2300;51.874;8.430;2023-03-11T14:38:47;26.17;;;24.77;;
4575;SDS011;2300;51.874;8.430;2023-03-11T14:41:14;26.70;;;25.17;;
4575;SDS011;2300;51.874;8.430;2023-03-11T14:43:41;25.47;;;24.07;;
4575;SDS011;2300;51.874;8.430;2023-03-11T14:46:11;27.17;;;25.77;;
4575;SDS011;2300;51.874;8.430;2023-03-11T14:48:44;25.33;;;23.80;;
4575;SDS011;2300;51.874;8.430;2023-03-11T14:51:13;25.20;;;23.80;;
4575;SDS011;2300;51.874;8.430;2023-03-11T14:53:45;31.77;;;29.50;;
4575;SDS011;2300;51.874;8.430;2023-03-11T14:56:18;26.63;;;25.23;;
4575;SDS011;2300;51.874;8.430;2023-03-11T14:58:47;25.60;;;24.17;;
4575;SDS011;2300;51.874;8.430;2023-03-11T15:01:19;27.63;;;25.57;;
4575;SDS011;2300;51.874;8.430;2023-03-11T15:03:51;27.20;;;25.80;;
4575;SDS011;2300;51.874;8.430;2023-03-11T15:06:22;30.33;;;28.47;;
4575;SDS011;2300;51.874;8.430;2023-03-11T15:08:54;29.47;;;27.60;;
4575;SDS011;2300;51.874;8.430;2023-03-11T15:11:25;29.27;;;27.57;;